Aviation Digital Data Service (ADDS)

Output produced by METARs form (0632 UTC 02 April 2015)
found at http://aviationweather.gov/adds/metars/
 
KHLG 020520Z 0206/0306 17008KT P6SM SKC 
     FM021200 18008KT P6SM BKN100 WS020/20040KT 
     FM021700 20012G22KT P6SM -SHRA OVC035 
     FM022100 21015G25KT 4SM -SHRA OVC025 
     FM030000 21010G20KT 3SM RA OVC015 
     FM030400 23006KT 2SM RA BR OVC008